Time;durP1;ratioP1;P1;durP2;ratioP2;P2;SDS_P1;SDS_P2;PMS_P1;PMS_P2;Temp;Humidity;BMP_temperature;BMP_pressure;BME280_temperature;BME280_humidity;BME280_pressure;Samples;Min_cycle;Max_cycle;Signal;HPM_P1;HPM_P2
2021/01/11 00:01:37;;;;;;;27.13;11.75;;;-5.20;99.90;;;;;;481255;247;27402;-68
2021/01/11 00:03:38;;;;;;;22.45;11.18;;;-5.20;99.90;;;;;;481340;247;27386;-68
2021/01/11 00:05:39;;;;;;;20.48;11.00;;;-5.20;99.90;;;;;;481375;247;27893;-70
2021/01/11 00:07:41;;;;;;;19.40;11.32;;;-5.20;99.90;;;;;;481400;247;28988;-68
2021/01/11 00:09:42;;;;;;;20.73;12.00;;;-5.20;99.90;;;;;;481412;247;27488;-69
2021/01/11 00:11:44;;;;;;;21.98;11.77;;;;;;;;;;476045;250;27667;-68
2021/01/11 00:13:49;;;;;;;18.92;11.65;;;;;;;;;;481388;247;27246;-68
2021/01/11 00:15:48;;;;;;;17.08;10.23;;;-5.20;99.90;;;;;;472733;251;26556;-69
2021/01/11 00:17:51;;;;;;;16.87;10.40;;;;;;;;;;476062;250;27651;-69
2021/01/11 00:19:52;;;;;;;18.87;10.50;;;-5.40;99.90;;;;;;481330;247;26735;-68
2021/01/11 00:21:53;;;;;;;25.88;13.32;;;-5.30;99.90;;;;;;476000;250;27513;-68
2021/01/11 00:23:54;;;;;;;22.73;12.35;;;-5.30;99.90;;;;;;481289;247;27438;-67
2021/01/11 00:25:56;;;;;;;20.23;11.23;;;-5.20;99.90;;;;;;475946;250;27575;-69
2021/01/11 00:27:58;;;;;;;21.15;11.05;;;;;;;;;;481263;247;28036;-68
2021/01/11 00:29:59;;;;;;;28.65;14.27;;;-5.20;99.90;;;;;;472662;251;26738;-68
2021/01/11 00:32:01;;;;;;;54.22;23.38;;;-5.30;99.90;;;;;;475851;250;27559;-68
2021/01/11 00:34:03;;;;;;;35.80;18.27;;;;;;;;;;481171;247;27904;-68
2021/01/11 00:36:04;;;;;;;27.85;13.65;;;-5.30;99.90;;;;;;472562;251;26978;-68
2021/01/11 00:38:05;;;;;;;19.23;12.18;;;-5.30;99.90;;;;;;476015;250;27628;-68
2021/01/11 00:40:07;;;;;;;22.60;10.93;;;-5.30;99.90;;;;;;481324;247;27898;-68
2021/01/11 00:42:08;;;;;;;19.35;10.98;;;-5.30;99.90;;;;;;476022;250;27995;-69
2021/01/11 00:44:09;;;;;;;17.55;10.88;;;-5.30;99.90;;;;;;481345;247;27469;-68
2021/01/11 00:46:10;;;;;;;19.08;10.60;;;-5.30;99.90;;;;;;476031;250;27558;-67
2021/01/11 00:48:12;;;;;;;20.88;11.40;;;-5.30;99.90;;;;;;481314;247;27465;-70
2021/01/11 00:50:13;;;;;;;19.58;10.90;;;-5.30;99.90;;;;;;481209;247;27505;-68
2021/01/11 00:52:14;;;;;;;18.17;10.57;;;-5.30;99.90;;;;;;481210;247;27411;-68
2021/01/11 00:54:16;;;;;;;18.05;10.65;;;-5.30;99.90;;;;;;481216;247;27958;-69
2021/01/11 00:56:17;;;;;;;18.87;10.40;;;-5.20;99.90;;;;;;481227;247;27850;-68
2021/01/11 00:58:18;;;;;;;16.27;10.27;;;-5.20;99.90;;;;;;481239;247;27505;-68
2021/01/11 01:00:20;;;;;;;17.45;10.07;;;-5.30;99.90;;;;;;475872;250;27558;-69
2021/01/11 01:02:21;;;;;;;22.20;10.95;;;-5.30;99.90;;;;;;481224;247;27497;-68
2021/01/11 01:04:22;;;;;;;22.80;11.12;;;-5.30;99.90;;;;;;475927;250;27552;-68
2021/01/11 01:06:23;;;;;;;16.37;10.35;;;-5.30;99.90;;;;;;481245;247;28613;-68
2021/01/11 01:08:24;;;;;;;17.73;9.63;;;-5.30;99.90;;;;;;475888;250;29099;-68
2021/01/11 01:10:26;;;;;;;15.38;10.35;;;-5.30;99.90;;;;;;481181;247;27414;-70
2021/01/11 01:12:27;;;;;;;18.25;10.68;;;-5.30;99.90;;;;;;475909;250;27554;-68
2021/01/11 01:14:28;;;;;;;18.12;10.82;;;-5.30;99.90;;;;;;481257;247;27763;-69
2021/01/11 01:16:29;;;;;;;18.52;11.12;;;-5.30;99.90;;;;;;481247;247;27500;-68
2021/01/11 01:18:31;;;;;;;16.35;10.95;;;-5.30;99.90;;;;;;481229;247;27862;-68
2021/01/11 01:20:32;;;;;;;19.02;10.57;;;-5.30;99.90;;;;;;475831;250;28225;-69
2021/01/11 01:22:34;;;;;;;16.10;10.05;;;;;;;;;;481253;247;27450;-68
2021/01/11 01:24:36;;;;;;;16.05;9.65;;;-5.50;99.90;;;;;;472728;251;26777;-67
2021/01/11 01:26:37;;;;;;;16.90;9.93;;;-5.40;99.90;;;;;;476010;250;27943;-68
2021/01/11 01:28:39;;;;;;;13.68;9.25;;;;;;;;;;481274;246;27831;-67
2021/01/11 01:30:41;;;;;;;17.52;10.27;;;-5.40;99.90;;;;;;475868;250;27420;-69
2021/01/11 01:32:43;;;;;;;17.95;10.07;;;;;;;;;;481296;247;28029;-68
2021/01/11 01:34:44;;;;;;;17.02;10.15;;;-5.50;99.90;;;;;;472732;251;26778;-69
2021/01/11 01:36:45;;;;;;;20.48;11.43;;;-5.50;99.90;;;;;;476091;250;27503;-67
2021/01/11 01:38:47;;;;;;;16.73;10.35;;;-5.50;99.90;;;;;;481382;247;27504;-69
2021/01/11 01:40:49;;;;;;;15.23;9.65;;;;;;;;;;476019;250;27956;-68
2021/01/11 01:42:51;;;;;;;16.48;9.63;;;-5.40;99.90;;;;;;481386;247;26653;-69
2021/01/11 01:44:52;;;;;;;20.62;10.77;;;-5.40;99.90;;;;;;476043;250;27514;-68
2021/01/11 01:46:53;;;;;;;18.67;9.90;;;-5.50;99.90;;;;;;481335;247;27414;-68
2021/01/11 01:48:54;;;;;;;16.50;9.00;;;-5.40;99.90;;;;;;476010;250;28023;-68
2021/01/11 01:50:55;;;;;;;14.80;8.82;;;-5.40;99.90;;;;;;481219;247;27880;-68
2021/01/11 01:52:57;;;;;;;16.20;9.50;;;-5.40;99.90;;;;;;475938;250;27544;-70
2021/01/11 01:54:58;;;;;;;17.85;10.77;;;-5.40;99.90;;;;;;481226;247;27474;-68
2021/01/11 01:56:59;;;;;;;21.10;10.88;;;-5.40;99.90;;;;;;475922;250;27548;-68
2021/01/11 01:59:01;;;;;;;19.17;11.88;;;-5.40;99.90;;;;;;481305;247;27425;-67
2021/01/11 02:01:02;;;;;;;18.00;10.48;;;-5.40;99.90;;;;;;475917;250;27527;-68
2021/01/11 02:03:03;;;;;;;16.92;10.13;;;-5.40;99.90;;;;;;481352;247;27982;-68
2021/01/11 02:05:04;;;;;;;19.55;11.68;;;-5.40;99.90;;;;;;476032;250;27948;-68
2021/01/11 02:07:06;;;;;;;18.92;10.50;;;-5.40;99.90;;;;;;481329;247;27490;-68
2021/01/11 02:09:07;;;;;;;18.30;9.60;;;-5.40;99.90;;;;;;476030;250;27611;-70
2021/01/11 02:11:08;;;;;;;26.45;14.00;;;-5.40;99.90;;;;;;481291;247;27417;-68
2021/01/11 02:13:09;;;;;;;32.60;16.45;;;-5.40;99.90;;;;;;475991;250;27649;-70
2021/01/11 02:15:11;;;;;;;21.52;11.70;;;-5.40;99.90;;;;;;481264;247;27960;-67
2021/01/11 02:17:12;;;;;;;18.37;10.70;;;-5.40;99.90;;;;;;475915;250;28057;-68
2021/01/11 02:19:13;;;;;;;18.55;11.40;;;-5.40;99.90;;;;;;481154;247;27413;-69
2021/01/11 02:21:14;;;;;;;32.03;13.90;;;-5.40;99.90;;;;;;475826;250;27547;-70
2021/01/11 02:23:16;;;;;;;30.02;14.93;;;-5.40;99.90;;;;;;481194;247;27772;-69
2021/01/11 02:25:17;;;;;;;35.03;14.25;;;-5.50;99.90;;;;;;481258;247;27472;-69
2021/01/11 02:27:18;;;;;;;19.92;11.65;;;-5.40;99.90;;;;;;481200;247;27517;-69
2021/01/11 02:29:19;;;;;;;18.20;10.57;;;-5.50;99.90;;;;;;481224;247;27972;-68
2021/01/11 02:31:22;;;;;;;17.85;10.10;;;;;;;;;;481175;247;27417;-68
2021/01/11 02:33:23;;;;;;;16.15;10.68;;;-5.50;99.90;;;;;;481237;247;26864;-70
2021/01/11 02:35:24;;;;;;;27.80;13.13;;;-5.40;99.90;;;;;;475913;250;28117;-69
2021/01/11 02:37:26;;;;;;;24.48;12.40;;;-5.40;99.90;;;;;;481227;247;27992;-68
2021/01/11 02:39:27;;;;;;;22.80;11.25;;;-5.50;99.90;;;;;;475931;250;27548;-69
2021/01/11 02:41:28;;;;;;;22.70;11.95;;;-5.50;99.90;;;;;;481223;246;27489;-67
2021/01/11 02:43:29;;;;;;;22.65;12.43;;;-5.50;99.90;;;;;;475962;250;27650;-69
2021/01/11 02:45:31;;;;;;;21.87;11.95;;;-5.60;99.90;;;;;;481249;247;27766;-70
2021/01/11 02:47:32;;;;;;;21.35;11.27;;;-5.50;99.90;;;;;;475946;250;28008;-68
2021/01/11 02:49:33;;;;;;;22.25;12.02;;;-5.50;99.90;;;;;;481359;247;28093;-69
2021/01/11 02:51:34;;;;;;;23.20;11.88;;;-5.60;99.90;;;;;;481344;247;27390;-68
2021/01/11 02:53:36;;;;;;;19.15;10.02;;;-5.50;99.90;;;;;;476054;250;27638;-68
2021/01/11 02:55:37;;;;;;;18.58;10.27;;;-5.60;99.90;;;;;;481261;247;27754;-68
2021/01/11 02:57:38;;;;;;;16.35;9.77;;;-5.50;99.90;;;;;;475819;250;27671;-68
2021/01/11 02:59:40;;;;;;;18.65;10.20;;;-5.50;99.90;;;;;;481241;247;27897;-70
2021/01/11 03:01:41;;;;;;;17.50;10.48;;;-5.50;99.90;;;;;;475885;250;29117;-67
2021/01/11 03:03:42;;;;;;;14.60;9.65;;;-5.50;99.90;;;;;;481246;247;27448;-68
2021/01/11 03:05:43;;;;;;;15.15;9.65;;;-5.60;99.90;;;;;;481222;247;27477;-69
2021/01/11 03:07:44;;;;;;;15.85;9.20;;;-5.60;99.90;;;;;;475947;250;27612;-68
2021/01/11 03:09:47;;;;;;;17.95;9.80;;;-5.60;99.90;;;;;;481305;247;27553;-68
2021/01/11 03:11:47;;;;;;;15.15;9.30;;;-5.60;99.90;;;;;;475858;250;27525;-68
2021/01/11 03:13:48;;;;;;;17.58;10.15;;;-5.60;99.90;;;;;;481330;246;27996;-68
2021/01/11 03:15:50;;;;;;;16.40;9.50;;;-5.60;99.90;;;;;;475932;250;29150;-71
2021/01/11 03:17:51;;;;;;;12.23;7.95;;;-5.60;99.90;;;;;;481407;247;27494;-68
2021/01/11 03:19:52;;;;;;;15.57;8.98;;;-5.70;99.90;;;;;;476061;250;27581;-68
2021/01/11 03:21:53;;;;;;;13.98;8.85;;;-5.70;99.90;;;;;;481347;247;27506;-67
2021/01/11 03:23:55;;;;;;;13.70;8.60;;;-5.70;99.90;;;;;;476069;249;27556;-68
2021/01/11 03:25:56;;;;;;;16.23;9.50;;;-5.70;99.90;;;;;;481415;247;27511;-69
2021/01/11 03:27:57;;;;;;;18.55;9.90;;;-5.60;99.90;;;;;;481393;247;27378;-68
2021/01/11 03:29:58;;;;;;;18.45;9.75;;;-5.60;99.90;;;;;;481389;247;27920;-71
2021/01/11 03:32:00;;;;;;;21.52;9.98;;;-5.60;99.90;;;;;;481299;247;28721;-68
2021/01/11 03:34:01;;;;;;;16.48;9.38;;;-5.60;99.90;;;;;;476015;250;27653;-68
2021/01/11 03:36:02;;;;;;;16.37;9.73;;;-5.60;99.90;;;;;;481384;247;27453;-67
2021/01/11 03:38:03;;;;;;;17.87;10.20;;;-5.60;99.90;;;;;;476071;250;27544;-68
2021/01/11 03:40:05;;;;;;;16.33;9.10;;;-5.60;99.90;;;;;;481390;247;27600;-70
2021/01/11 03:42:06;;;;;;;18.15;9.48;;;-5.60;99.90;;;;;;476062;250;27556;-69
2021/01/11 03:44:07;;;;;;;13.18;8.70;;;-5.60;99.90;;;;;;481313;247;27429;-68
2021/01/11 03:46:08;;;;;;;15.88;9.30;;;-5.60;99.90;;;;;;481263;247;27958;-68
2021/01/11 03:48:10;;;;;;;11.30;8.02;;;-5.60;99.90;;;;;;481262;247;27429;-68
2021/01/11 03:50:11;;;;;;;15.00;9.07;;;-5.60;99.90;;;;;;481170;247;27473;-69
2021/01/11 03:52:12;;;;;;;14.95;8.90;;;-5.60;99.90;;;;;;475927;250;27559;-69
2021/01/11 03:54:13;;;;;;;12.88;9.30;;;-5.60;99.90;;;;;;481211;246;27539;-68
2021/01/11 03:56:15;;;;;;;14.38;9.13;;;-5.60;99.90;;;;;;475800;250;27567;-68
2021/01/11 03:58:16;;;;;;;15.02;8.63;;;-5.60;99.90;;;;;;480729;247;27509;-68
2021/01/11 04:00:17;;;;;;;13.15;8.40;;;-5.70;99.90;;;;;;481099;247;27970;-69
2021/01/11 04:02:18;;;;;;;15.38;9.30;;;-5.70;99.90;;;;;;481238;247;28966;-68
2021/01/11 04:04:20;;;;;;;16.10;9.40;;;-5.70;99.90;;;;;;475868;250;27546;-68
2021/01/11 04:06:21;;;;;;;16.55;9.73;;;-5.70;99.90;;;;;;481252;247;27425;-68
2021/01/11 04:08:22;;;;;;;12.75;8.25;;;-5.70;99.90;;;;;;475905;250;28730;-69
2021/01/11 04:10:23;;;;;;;15.75;9.02;;;-5.70;99.90;;;;;;481198;247;27496;-69
2021/01/11 04:12:25;;;;;;;12.88;8.50;;;-5.70;99.90;;;;;;481247;247;27414;-69
2021/01/11 04:14:26;;;;;;;14.25;8.75;;;-5.80;99.90;;;;;;481248;247;27509;-68
2021/01/11 04:16:27;;;;;;;15.93;9.10;;;-5.70;99.90;;;;;;481130;247;27945;-67
2021/01/11 04:18:28;;;;;;;16.85;9.18;;;-5.70;99.90;;;;;;475904;250;28111;-70
2021/01/11 04:20:30;;;;;;;12.75;8.23;;;-5.70;99.90;;;;;;481201;247;27417;-69
2021/01/11 04:22:31;;;;;;;16.08;7.95;;;-5.70;99.90;;;;;;475884;250;27560;-68
2021/01/11 04:24:32;;;;;;;12.52;8.30;;;-5.80;99.90;;;;;;481247;247;27386;-68
2021/01/11 04:26:34;;;;;;;16.17;9.52;;;-5.80;99.90;;;;;;475929;250;27528;-67
2021/01/11 04:28:35;;;;;;;19.92;10.40;;;-5.80;99.90;;;;;;481254;247;27430;-68
2021/01/11 04:30:36;;;;;;;17.60;11.15;;;-5.90;99.90;;;;;;475900;249;28104;-67
2021/01/11 04:32:39;;;;;;;18.45;10.18;;;-5.90;99.90;;;;;;481216;247;27885;-67
2021/01/11 04:34:39;;;;;;;20.23;10.00;;;-5.90;99.90;;;;;;475835;250;27570;-69
2021/01/11 04:36:41;;;;;;;18.02;10.50;;;-6.00;99.90;;;;;;481260;246;27398;-68
2021/01/11 04:38:41;;;;;;;19.60;9.82;;;-6.00;99.90;;;;;;475899;250;27570;-67
2021/01/11 04:40:42;;;;;;;16.12;10.10;;;-6.00;99.90;;;;;;481370;246;27378;-67
2021/01/11 04:42:44;;;;;;;16.87;9.98;;;-6.00;99.90;;;;;;475969;250;27514;-68
2021/01/11 04:44:45;;;;;;;14.48;9.43;;;-6.00;99.90;;;;;;481385;247;27957;-69
2021/01/11 04:46:46;;;;;;;16.73;9.77;;;-5.90;99.90;;;;;;476080;250;28051;-67
2021/01/11 04:48:47;;;;;;;15.85;9.60;;;-5.90;99.90;;;;;;481410;247;27421;-68
2021/01/11 04:50:49;;;;;;;14.68;9.40;;;-6.00;99.90;;;;;;476031;250;27579;-67
2021/01/11 04:52:50;;;;;;;15.77;9.10;;;-6.00;99.90;;;;;;481402;247;27450;-68
2021/01/11 04:54:51;;;;;;;16.02;9.13;;;-6.00;99.90;;;;;;476073;250;27600;-69
2021/01/11 04:56:52;;;;;;;13.68;8.10;;;-5.90;99.90;;;;;;481372;247;27418;-68
2021/01/11 04:58:54;;;;;;;16.42;8.90;;;-5.90;99.90;;;;;;476081;250;27531;-68
2021/01/11 05:00:55;;;;;;;17.85;9.38;;;-5.90;99.90;;;;;;481355;247;27938;-69
2021/01/11 05:02:57;;;;;;;14.93;9.18;;;-5.90;99.90;;;;;;475962;250;29086;-67
2021/01/11 05:04:57;;;;;;;15.75;9.57;;;-5.90;99.90;;;;;;481308;247;27414;-69
2021/01/11 05:06:59;;;;;;;17.20;10.07;;;-5.90;99.90;;;;;;481224;247;27380;-67
2021/01/11 05:09:00;;;;;;;19.60;11.15;;;-5.90;99.90;;;;;;481328;247;27419;-68
2021/01/11 05:11:01;;;;;;;19.40;10.95;;;-5.90;99.90;;;;;;481328;247;27518;-69
2021/01/11 05:13:02;;;;;;;17.48;10.85;;;-5.80;99.90;;;;;;481350;247;27474;-68
2021/01/11 05:15:04;;;;;;;19.45;11.07;;;-5.90;99.90;;;;;;481214;247;27904;-69
2021/01/11 05:17:05;;;;;;;17.48;10.68;;;-5.90;99.90;;;;;;481272;247;28078;-67
2021/01/11 05:19:06;;;;;;;17.42;11.02;;;-5.80;99.90;;;;;;481223;247;27417;-67
2021/01/11 05:21:07;;;;;;;18.25;9.65;;;-5.80;99.90;;;;;;480764;247;27492;-68
2021/01/11 05:23:09;;;;;;;15.60;9.50;;;-5.80;99.90;;;;;;481239;247;27386;-67
2021/01/11 05:25:10;;;;;;;13.38;8.98;;;-5.80;99.90;;;;;;481220;247;27409;-69
2021/01/11 05:27:11;;;;;;;14.60;8.95;;;-5.80;99.90;;;;;;475905;250;27599;-69
2021/01/11 05:29:13;;;;;;;18.37;9.38;;;-5.80;99.90;;;;;;481212;247;27893;-68
2021/01/11 05:31:14;;;;;;;11.90;8.13;;;-5.80;99.90;;;;;;481184;247;28970;-68
2021/01/11 05:33:15;;;;;;;14.57;8.60;;;-5.90;99.90;;;;;;481232;247;27410;-68
2021/01/11 05:35:16;;;;;;;15.80;8.88;;;-5.90;99.90;;;;;;481249;247;27386;-67
2021/01/11 05:37:18;;;;;;;17.12;8.50;;;-5.80;99.90;;;;;;481212;247;27438;-69
2021/01/11 05:39:19;;;;;;;12.90;8.30;;;-5.80;99.90;;;;;;475892;250;27562;-68
2021/01/11 05:41:20;;;;;;;17.33;8.40;;;-5.80;99.90;;;;;;481174;247;27415;-68
2021/01/11 05:43:21;;;;;;;15.95;9.20;;;-5.90;99.90;;;;;;475891;250;28215;-67
2021/01/11 05:45:23;;;;;;;14.68;7.80;;;-5.90;99.90;;;;;;481229;247;27994;-68
2021/01/11 05:47:24;;;;;;;14.75;8.63;;;-5.90;99.90;;;;;;475874;250;27582;-68
2021/01/11 05:49:28;;;;;;;14.60;8.68;;;-5.80;99.90;;;;;;481227;247;27417;-69
2021/01/11 05:51:26;;;;;;;11.85;7.40;;;-5.80;99.90;;;;;;481112;247;27401;-68
2021/01/11 05:53:28;;;;;;;15.00;8.60;;;-5.70;99.90;;;;;;481340;247;27507;-68
2021/01/11 05:55:29;;;;;;;13.68;7.93;;;-5.80;99.90;;;;;;481391;247;27517;-68
2021/01/11 05:57:30;;;;;;;16.30;9.13;;;-5.80;99.90;;;;;;481279;247;27511;-68
2021/01/11 05:59:33;;;;;;;17.58;10.50;;;-5.80;99.90;;;;;;481242;247;27882;-69
2021/01/11 06:01:33;;;;;;;17.37;10.15;;;-5.80;99.90;;;;;;481096;247;27881;-67
2021/01/11 06:03:34;;;;;;;16.80;9.52;;;-5.80;99.90;;;;;;481262;247;27406;-68
2021/01/11 06:05:35;;;;;;;13.23;8.25;;;-5.80;99.90;;;;;;481275;247;27378;-67
2021/01/11 06:07:36;;;;;;;12.63;7.78;;;-5.80;99.90;;;;;;475899;250;27551;-68
2021/01/11 06:09:38;;;;;;;14.05;8.80;;;-5.80;99.90;;;;;;481263;246;27414;-70
2021/01/11 06:11:39;;;;;;;15.90;9.35;;;-5.80;99.90;;;;;;475921;250;27550;-68
2021/01/11 06:13:40;;;;;;;16.67;9.32;;;-5.80;99.90;;;;;;481315;247;27843;-68
2021/01/11 06:15:42;;;;;;;15.27;9.85;;;-5.80;99.90;;;;;;475850;250;28197;-67
2021/01/11 06:17:43;;;;;;;12.75;8.63;;;-5.80;99.90;;;;;;481276;247;27426;-67
2021/01/11 06:19:44;;;;;;;17.25;8.70;;;-5.80;99.90;;;;;;481368;247;27493;-69
2021/01/11 06:21:45;;;;;;;16.65;8.45;;;-5.90;99.90;;;;;;476028;250;27516;-68
2021/01/11 06:23:46;;;;;;;14.48;8.55;;;-5.90;99.90;;;;;;481316;247;27438;-68
2021/01/11 06:25:48;;;;;;;16.42;9.73;;;-5.80;99.90;;;;;;475971;250;27679;-67
2021/01/11 06:27:49;;;;;;;16.00;8.77;;;-5.90;99.90;;;;;;481349;247;27382;-68
2021/01/11 06:29:50;;;;;;;14.43;8.88;;;-5.90;99.90;;;;;;476000;250;28020;-69
2021/01/11 06:31:51;;;;;;;17.73;10.07;;;-6.00;99.90;;;;;;481003;247;28295;-67
2021/01/11 06:33:53;;;;;;;13.35;8.75;;;-6.00;99.90;;;;;;475521;250;27571;-68
2021/01/11 06:35:54;;;;;;;14.95;8.63;;;-6.00;99.90;;;;;;481259;247;27438;-67
2021/01/11 06:37:55;;;;;;;16.90;8.25;;;-6.00;99.90;;;;;;476022;250;27628;-67
2021/01/11 06:39:56;;;;;;;14.15;8.77;;;-6.00;99.90;;;;;;481323;247;27526;-70
2021/01/11 06:41:58;;;;;;;17.05;9.68;;;-6.00;99.90;;;;;;481288;247;28567;-67
2021/01/11 06:43:59;;;;;;;15.77;10.55;;;-6.00;99.90;;;;;;481336;247;27993;-68
2021/01/11 06:46:00;;;;;;;16.05;9.80;;;-6.00;99.90;;;;;;481338;247;29063;-69
2021/01/11 06:48:02;;;;;;;20.08;9.93;;;-5.90;99.90;;;;;;481324;247;27504;-68
2021/01/11 06:50:03;;;;;;;15.73;9.77;;;-5.90;99.90;;;;;;481234;247;27496;-68
2021/01/11 06:52:04;;;;;;;14.32;9.88;;;-5.90;99.90;;;;;;481233;247;27394;-67
2021/01/11 06:54:05;;;;;;;16.52;9.60;;;-5.90;99.90;;;;;;481244;247;27454;-69
2021/01/11 06:56:07;;;;;;;14.32;9.43;;;-5.90;99.90;;;;;;481286;247;27389;-69
2021/01/11 06:58:08;;;;;;;15.75;9.60;;;-5.90;99.90;;;;;;475959;250;27567;-68
2021/01/11 07:00:09;;;;;;;14.90;9.77;;;-5.90;99.90;;;;;;481202;247;28021;-67
2021/01/11 07:02:10;;;;;;;17.83;9.75;;;-5.80;99.90;;;;;;475916;250;28217;-68
2021/01/11 07:04:12;;;;;;;15.38;10.13;;;-5.90;99.90;;;;;;481149;246;27426;-69
2021/01/11 07:06:13;;;;;;;17.42;10.25;;;-5.90;99.90;;;;;;475890;250;27551;-68
2021/01/11 07:08:19;;;;;;;15.10;9.18;;;-5.90;99.90;;;;;;481236;247;28598;-68
2021/01/11 07:10:15;;;;;;;14.90;9.38;;;-5.90;99.90;;;;;;480991;247;27412;-70
2021/01/11 07:12:17;;;;;;;18.02;9.45;;;-5.80;99.90;;;;;;481232;247;27425;-68
2021/01/11 07:14:20;;;;;;;15.55;9.82;;;-5.80;99.90;;;;;;481241;247;27977;-68
2021/01/11 07:16:19;;;;;;;16.85;9.93;;;-5.80;99.90;;;;;;475778;250;28099;-67
2021/01/11 07:18:20;;;;;;;17.05;9.88;;;-5.80;99.90;;;;;;481248;247;27448;-68
2021/01/11 07:20:22;;;;;;;17.05;9.82;;;-5.80;99.90;;;;;;475876;250;27572;-67
2021/01/11 07:22:23;;;;;;;17.23;10.75;;;-5.80;99.90;;;;;;481233;247;27504;-68
2021/01/11 07:24:24;;;;;;;14.20;9.20;;;-5.80;99.90;;;;;;475903;249;27614;-69
2021/01/11 07:26:25;;;;;;;14.93;9.68;;;-5.90;99.90;;;;;;481226;247;27425;-67
2021/01/11 07:28:27;;;;;;;15.70;9.65;;;-6.00;99.90;;;;;;475915;250;27701;-69
2021/01/11 07:30:28;;;;;;;14.98;8.68;;;-6.00;99.90;;;;;;481176;247;27973;-70
2021/01/11 07:32:29;;;;;;;13.75;8.65;;;-5.90;99.90;;;;;;481253;247;27903;-68
2021/01/11 07:34:30;;;;;;;14.63;9.80;;;-5.90;99.90;;;;;;481208;247;27405;-69
2021/01/11 07:36:32;;;;;;;15.68;8.38;;;-5.90;99.90;;;;;;475893;250;27556;-68
2021/01/11 07:38:33;;;;;;;16.27;9.20;;;-5.90;99.90;;;;;;481238;247;27431;-69
2021/01/11 07:40:34;;;;;;;13.88;9.00;;;-5.90;99.90;;;;;;475901;250;27624;-67
2021/01/11 07:42:35;;;;;;;15.40;9.20;;;-5.80;99.90;;;;;;481227;247;27485;-68
2021/01/11 07:44:37;;;;;;;18.80;9.30;;;-5.80;99.90;;;;;;475887;250;28252;-69
2021/01/11 07:46:38;;;;;;;14.93;9.45;;;-5.80;99.90;;;;;;481278;246;27823;-67
2021/01/11 07:48:40;;;;;;;15.30;10.13;;;-5.70;99.90;;;;;;476002;249;28015;-68
2021/01/11 07:50:40;;;;;;;16.37;9.60;;;-5.70;99.90;;;;;;481286;247;27445;-68
2021/01/11 07:52:42;;;;;;;14.13;9.48;;;-5.70;99.90;;;;;;476061;250;27790;-68
2021/01/11 07:54:44;;;;;;;16.05;9.48;;;-5.60;99.90;;;;;;481423;247;27800;-70
2021/01/11 07:56:44;;;;;;;20.42;9.25;;;-5.60;99.90;;;;;;476051;250;27528;-67
2021/01/11 07:58:46;;;;;;;16.60;9.90;;;-5.60;99.90;;;;;;481396;247;27449;-68
2021/01/11 08:00:47;;;;;;;15.55;10.00;;;-5.60;99.90;;;;;;481371;247;27827;-67
2021/01/11 08:02:48;;;;;;;16.02;10.45;;;-5.60;99.90;;;;;;481405;247;27920;-67
2021/01/11 08:04:49;;;;;;;15.38;9.90;;;-5.70;99.90;;;;;;481387;247;27508;-69
2021/01/11 08:06:51;;;;;;;14.90;9.73;;;-5.70;99.90;;;;;;476040;250;27523;-68
2021/01/11 08:08:52;;;;;;;16.85;10.35;;;-5.60;99.90;;;;;;481079;247;27532;-68
2021/01/11 08:10:53;;;;;;;19.08;10.27;;;-5.70;99.90;;;;;;475289;250;27642;-70
2021/01/11 08:12:54;;;;;;;14.10;9.32;;;-5.70;99.90;;;;;;480574;247;27870;-69
2021/01/11 08:14:56;;;;;;;16.73;10.20;;;-5.60;99.90;;;;;;475408;248;28407;-71
2021/01/11 08:16:57;;;;;;;13.38;9.57;;;-5.60;99.90;;;;;;480876;247;27879;-67
2021/01/11 08:18:58;;;;;;;16.98;10.32;;;-5.50;99.90;;;;;;475978;250;27555;-68
2021/01/11 08:20:59;;;;;;;21.10;11.45;;;-5.50;99.90;;;;;;481303;247;27418;-70
2021/01/11 08:23:01;;;;;;;16.85;10.70;;;-5.40;99.90;;;;;;476000;250;27515;-68
2021/01/11 08:25:02;;;;;;;18.92;12.07;;;-5.30;99.90;;;;;;481311;247;27448;-68
2021/01/11 08:27:03;;;;;;;23.90;14.05;;;-5.30;99.90;;;;;;475962;250;28229;-67
2021/01/11 08:29:04;;;;;;;24.10;14.25;;;-5.20;99.90;;;;;;481198;247;29161;-68
2021/01/11 08:31:06;;;;;;;25.27;14.50;;;-5.10;99.90;;;;;;481188;247;27417;-68
2021/01/11 08:33:07;;;;;;;24.95;14.32;;;-5.10;99.90;;;;;;481241;247;27394;-67
2021/01/11 08:35:09;;;;;;;21.50;13.02;;;;;;;;;;475933;250;27985;-69
2021/01/11 08:37:12;;;;;;;23.12;12.70;;;;;;;;;;481078;247;26750;-68
2021/01/11 08:39:14;;;;;;;23.12;13.55;;;;;;;;;;472600;251;26885;-71
2021/01/11 08:41:17;;;;;;;23.65;14.27;;;;;;;;;;472552;251;27215;-67
2021/01/11 08:43:23;;;;;;;20.42;12.43;;;-4.80;99.90;;;;;;472510;251;28403;-68
2021/01/11 08:45:23;;;;;;;21.20;13.30;;;;;;;;;;481435;247;28247;-69
2021/01/11 08:47:26;;;;;;;23.80;14.60;;;;;;;;;;472838;251;26429;-68
2021/01/11 08:49:28;;;;;;;21.65;12.50;;;;;;;;;;472654;251;27317;-68
2021/01/11 08:51:31;;;;;;;18.70;11.48;;;;;;;;;;472575;251;26822;-69
2021/01/11 08:53:32;;;;;;;17.90;11.55;;;-4.60;99.90;;;;;;472626;251;28053;-69
2021/01/11 08:55:35;;;;;;;23.15;12.60;;;;;;;;;;475895;250;28016;-68
2021/01/11 08:57:37;;;;;;;17.48;11.73;;;;;;;;;;481228;247;26874;-70
2021/01/11 08:59:38;;;;;;;24.33;13.55;;;-4.60;99.90;;;;;;472610;251;26624;-68
2021/01/11 09:01:41;;;;;;;17.05;10.95;;;-4.50;99.90;;;;;;475842;250;27542;-68
2021/01/11 09:03:42;;;;;;;22.77;11.80;;;;;;;;;;481408;247;27362;-69
2021/01/11 09:05:44;;;;;;;25.50;14.18;;;-4.40;99.90;;;;;;481539;247;26487;-69
2021/01/11 09:07:46;;;;;;;24.25;13.30;;;;;;;;;;476201;250;27072;-70
2021/01/11 09:09:47;;;;;;;19.70;12.27;;;-4.20;99.90;;;;;;481514;247;26974;-67
2021/01/11 09:11:48;;;;;;;22.95;13.55;;;-4.10;99.90;;;;;;481460;247;27547;-69
2021/01/11 09:13:51;;;;;;;22.13;14.07;;;;;;;;;;481351;247;27518;-69
2021/01/11 09:15:52;;;;;;;25.48;14.00;;;-4.00;99.90;;;;;;481243;247;27708;-68
2021/01/11 09:17:53;;;;;;;24.90;13.75;;;-3.80;99.90;;;;;;481205;247;27545;-68
2021/01/11 09:19:54;;;;;;;23.40;14.38;;;-3.80;99.90;;;;;;475890;250;27225;-69
2021/01/11 09:21:55;;;;;;;21.98;12.55;;;-3.70;99.90;;;;;;481159;247;27341;-68
2021/01/11 09:23:57;;;;;;;26.20;15.18;;;-3.60;99.90;;;;;;475869;250;27117;-68
2021/01/11 09:26:00;;;;;;;23.38;13.80;;;;;;;;;;481223;247;26982;-68
2021/01/11 09:28:00;;;;;;;25.88;15.65;;;-3.60;99.90;;;;;;472569;251;26658;-69
2021/01/11 09:30:02;;;;;;;25.10;14.52;;;-3.40;99.90;;;;;;475871;250;27209;-71
2021/01/11 09:32:03;;;;;;;31.12;14.87;;;-3.40;99.90;;;;;;481232;247;27101;-68
2021/01/11 09:34:05;;;;;;;24.77;15.80;;;;;;;;;;481352;247;27155;-69
2021/01/11 09:36:07;;;;;;;20.65;13.55;;;-3.30;99.90;;;;;;481311;247;26715;-68
2021/01/11 09:38:09;;;;;;;21.00;12.50;;;;;;;;;;475987;250;27635;-68
2021/01/11 09:40:10;;;;;;;23.65;13.50;;;-3.10;99.90;;;;;;480777;247;26649;-70
2021/01/11 09:42:12;;;;;;;19.92;13.32;;;-3.10;99.90;;;;;;476075;250;27175;-68
2021/01/11 09:44:13;;;;;;;25.27;15.70;;;-3.00;99.90;;;;;;481327;247;27768;-67
2021/01/11 09:46:14;;;;;;;23.23;14.20;;;-2.90;99.90;;;;;;476002;250;28702;-68
2021/01/11 09:48:15;;;;;;;20.73;13.15;;;-2.80;99.90;;;;;;481264;247;27257;-68
2021/01/11 09:50:17;;;;;;;22.65;15.30;;;-2.70;99.90;;;;;;475881;250;27417;-70
2021/01/11 09:52:18;;;;;;;20.83;11.57;;;-2.70;99.90;;;;;;481270;247;27361;-68
2021/01/11 09:54:19;;;;;;;17.23;11.85;;;-2.60;99.90;;;;;;475954;250;27461;-68
2021/01/11 09:56:21;;;;;;;16.58;11.27;;;-2.50;99.90;;;;;;481240;247;27973;-70
2021/01/11 09:58:22;;;;;;;19.42;11.48;;;-2.50;99.90;;;;;;475926;250;29150;-68
2021/01/11 10:00:23;;;;;;;17.58;11.10;;;-2.40;99.90;;;;;;481178;247;27416;-70
2021/01/11 10:02:24;;;;;;;19.40;11.95;;;-2.30;99.90;;;;;;475883;248;27623;-68
2021/01/11 10:04:25;;;;;;;20.12;13.20;;;-2.30;99.90;;;;;;481220;246;27429;-69
2021/01/11 10:06:27;;;;;;;25.50;14.55;;;-2.20;99.90;;;;;;475932;250;27679;-69
2021/01/11 10:08:28;;;;;;;18.35;12.05;;;-2.20;99.90;;;;;;481210;247;27957;-68
2021/01/11 10:10:29;;;;;;;18.00;12.10;;;-2.20;99.90;;;;;;475681;250;29237;-68
2021/01/11 10:12:31;;;;;;;16.95;9.95;;;-2.20;99.90;;;;;;481297;247;27454;-68
2021/01/11 10:14:32;;;;;;;15.85;10.32;;;-2.20;99.90;;;;;;475897;250;27633;-68
2021/01/11 10:16:33;;;;;;;14.25;9.90;;;-2.10;99.90;;;;;;481224;247;27410;-69
2021/01/11 10:18:34;;;;;;;14.15;9.00;;;-2.00;99.90;;;;;;475934;250;27585;-68
2021/01/11 10:20:36;;;;;;;13.20;7.90;;;-2.00;99.90;;;;;;481140;247;27429;-69
2021/01/11 10:22:37;;;;;;;9.68;7.28;;;-2.00;99.90;;;;;;481233;247;27830;-70
2021/01/11 10:24:38;;;;;;;12.90;7.57;;;-1.90;99.90;;;;;;481231;247;27897;-69
2021/01/11 10:26:39;;;;;;;8.35;6.25;;;-1.90;99.90;;;;;;475916;250;28162;-69